createdAt,value
2018-05-25T00:02:47.667Z,96.50
2018-05-25T00:07:49.022Z,96.50
2018-05-25T00:12:51.059Z,96.40
2018-05-25T00:17:52.365Z,96.40
2018-05-25T00:22:54.415Z,96.70
2018-05-25T00:27:55.711Z,96.70
2018-05-25T00:32:57.026Z,96.80
2018-05-25T00:37:58.359Z,96.80
2018-05-25T00:42:59.715Z,97.00
2018-05-25T00:48:01.031Z,97.30
2018-05-25T00:53:02.355Z,97.90
2018-05-25T00:58:03.660Z,98.10
2018-05-25T01:03:05.879Z,98.10
2018-05-25T01:08:07.163Z,98.30
2018-05-25T01:13:08.466Z,98.10
2018-05-25T01:18:09.755Z,98.10
2018-05-25T01:23:11.043Z,98.60
2018-05-25T01:28:13.123Z,98.50
2018-05-25T01:33:14.434Z,98.50
2018-05-25T01:38:15.738Z,98.40
2018-05-25T01:43:17.036Z,98.30
2018-05-25T01:48:18.369Z,98.30
2018-05-25T01:53:20.410Z,98.30
2018-05-25T01:58:21.700Z,98.30
2018-05-25T02:03:24.482Z,98.50
2018-05-25T02:08:25.782Z,98.50
2018-05-25T02:13:27.815Z,98.70
2018-05-25T02:18:29.107Z,98.70
2018-05-25T02:23:30.392Z,98.60
2018-05-25T02:28:31.682Z,99.20
2018-05-25T02:33:32.983Z,99.40
2018-05-25T02:38:34.305Z,99.40
2018-05-25T02:43:36.327Z,99.20
2018-05-25T02:48:37.620Z,99.20
2018-05-25T02:53:38.919Z,99.40
2018-05-25T02:58:40.210Z,99.60
2018-05-25T03:03:41.518Z,99.60
2018-05-25T03:08:43.576Z,99.90
2018-05-25T03:13:44.872Z,99.90
2018-05-25T03:18:46.158Z,99.90
2018-05-25T03:23:47.464Z,99.90
2018-05-25T03:28:48.760Z,99.90
2018-05-25T03:33:50.787Z,99.90
2018-05-25T03:38:52.096Z,99.90
2018-05-25T03:43:53.395Z,99.90
2018-05-25T03:48:54.691Z,99.90
2018-05-25T03:53:56.011Z,99.90
2018-05-25T03:59:10.543Z,99.90
2018-05-25T04:04:11.881Z,99.90
2018-05-25T04:09:13.187Z,99.90
2018-05-25T04:14:14.521Z,99.90
2018-05-25T04:19:15.835Z,99.90
2018-05-25T04:24:17.891Z,99.90
2018-05-25T04:29:19.179Z,99.90
2018-05-25T04:34:21.214Z,99.90
2018-05-25T04:39:22.502Z,99.90
2018-05-25T04:44:23.799Z,99.90
2018-05-25T04:49:25.095Z,99.90
2018-05-25T04:54:26.383Z,99.90
2018-05-25T04:59:27.702Z,99.90
2018-05-25T05:04:28.999Z,99.90
2018-05-25T05:09:30.288Z,99.80
2018-05-25T05:14:33.080Z,99.30
2018-05-25T05:19:34.380Z,99.30
2018-05-25T05:24:35.679Z,99.10
2018-05-25T05:29:36.979Z,97.70
2018-05-25T05:34:38.312Z,97.40
2018-05-25T05:39:39.616Z,97.00
2018-05-25T05:44:40.922Z,96.40
2018-05-25T05:49:42.218Z,95.80
2018-05-25T05:54:43.508Z,94.50
2018-05-25T05:59:44.804Z,94.20
2018-05-25T06:04:46.132Z,93.30
2018-05-25T06:09:47.428Z,92.70
2018-05-25T06:14:49.462Z,91.50
2018-05-25T06:19:50.755Z,91.50
2018-05-25T06:24:52.091Z,91.40
2018-05-25T06:29:53.389Z,90.70
2018-05-25T06:34:55.436Z,89.30
2018-05-25T06:39:56.753Z,89.40
2018-05-25T06:44:58.051Z,90.10
2018-05-25T06:49:59.387Z,89.60
2018-05-25T06:55:00.686Z,90.30
2018-05-25T07:00:02.003Z,89.60
2018-05-25T07:05:03.345Z,85.90
2018-05-25T07:10:05.399Z,84.70
2018-05-25T07:15:06.699Z,84.00
2018-05-25T07:20:08.737Z,82.20
2018-05-25T07:25:10.054Z,82.10
2018-05-25T07:30:12.080Z,78.50
2018-05-25T07:35:13.391Z,78.40
2018-05-25T07:40:15.729Z,76.60
2018-05-25T07:45:17.030Z,76.50
2018-05-25T07:50:19.085Z,76.20
2018-05-25T07:55:20.367Z,76.20
2018-05-25T08:00:21.708Z,75.70
2018-05-25T08:05:22.965Z,75.90
2018-05-25T08:10:39.183Z,72.50
2018-05-25T08:15:40.480Z,70.70
2018-05-25T08:20:41.835Z,70.10
2018-05-25T08:25:43.140Z,66.20
2018-05-25T08:30:44.451Z,62.70
2018-05-25T08:35:45.763Z,59.30
2018-05-25T08:40:47.084Z,61.50
2018-05-25T08:45:48.440Z,60.10
2018-05-25T08:50:49.755Z,58.90
2018-05-25T08:55:52.037Z,58.40
2018-05-25T09:00:53.406Z,58.40
2018-05-25T09:05:55.441Z,58.00
2018-05-25T09:10:56.749Z,58.00
2018-05-25T09:15:58.811Z,57.40
2018-05-25T09:21:00.135Z,57.30
2018-05-25T09:26:01.443Z,55.70
2018-05-25T09:31:02.760Z,56.30
2018-05-25T09:36:04.079Z,55.30
2018-05-25T09:41:05.371Z,50.00
2018-05-25T09:46:06.691Z,50.90
2018-05-25T09:51:08.768Z,46.50
2018-05-25T09:56:10.145Z,46.40
2018-05-25T10:01:11.418Z,46.90
2018-05-25T10:06:13.483Z,45.80
2018-05-25T10:11:14.780Z,45.70
2018-05-25T10:16:16.099Z,44.80
2018-05-25T10:21:17.404Z,42.80
2018-05-25T10:26:19.496Z,43.80
2018-05-25T10:31:20.833Z,43.70
2018-05-25T10:36:22.131Z,41.80
2018-05-25T10:41:23.450Z,38.80
2018-05-25T10:46:24.739Z,38.60
2018-05-25T10:51:26.940Z,35.60
2018-05-25T10:56:28.300Z,35.10
2018-05-25T11:01:29.572Z,34.60
2018-05-25T11:06:31.612Z,33.90
2018-05-25T11:11:33.686Z,33.50
2018-05-25T11:16:35.015Z,33.40
2018-05-25T11:21:36.304Z,31.40
2018-05-25T11:26:37.641Z,29.10
2018-05-25T11:31:38.937Z,28.90
2018-05-25T11:36:40.260Z,26.80
2018-05-25T11:41:41.559Z,27.50
2018-05-25T11:46:42.866Z,25.50
2018-05-25T11:51:44.923Z,25.10
2018-05-25T11:56:46.967Z,23.60
2018-05-25T12:01:48.320Z,23.60
2018-05-25T12:06:50.348Z,20.50
2018-05-25T12:11:51.644Z,20.40
2018-05-25T12:16:53.687Z,17.70
2018-05-25T12:21:56.481Z,21.40
2018-05-25T12:26:57.801Z,21.30
2018-05-25T12:31:59.112Z,22.30
2018-05-25T12:37:00.446Z,22.90
2018-05-25T12:42:01.798Z,20.90
2018-05-25T12:47:03.095Z,21.70
2018-05-25T12:52:04.411Z,20.60
2018-05-25T12:57:06.454Z,20.60
2018-05-25T13:02:07.784Z,20.60
2018-05-25T13:07:09.083Z,18.20
2018-05-25T13:12:10.397Z,17.70
2018-05-25T13:17:11.715Z,17.70
2018-05-25T13:22:13.024Z,18.10
2018-05-25T13:27:14.352Z,16.40
2018-05-25T13:32:15.678Z,15.30
2018-05-25T13:37:16.973Z,15.50
2018-05-25T13:42:18.293Z,17.50
2018-05-25T13:47:19.626Z,19.00
2018-05-25T13:52:20.945Z,17.20
2018-05-25T13:57:22.268Z,18.10
2018-05-25T14:02:23.597Z,16.70
2018-05-25T14:07:24.911Z,15.70
2018-05-25T14:12:26.234Z,16.40
2018-05-25T14:17:27.519Z,16.70
2018-05-25T14:22:28.875Z,16.50
2018-05-25T14:27:30.942Z,18.40
2018-05-25T14:32:32.247Z,17.90
2018-05-25T14:37:33.575Z,20.10
2018-05-25T14:42:35.635Z,25.80
2018-05-25T14:47:36.959Z,25.60
2018-05-25T14:52:38.281Z,23.80
2018-05-25T14:57:39.567Z,21.50
2018-05-25T15:02:41.642Z,19.90
2018-05-25T15:07:42.952Z,19.90
2018-05-25T15:12:44.287Z,19.00
2018-05-25T15:17:46.349Z,18.50
2018-05-25T15:22:47.679Z,18.50
2018-05-25T15:27:48.976Z,19.20
2018-05-25T15:32:51.052Z,24.70
2018-05-25T15:37:52.351Z,24.70
2018-05-25T15:42:53.616Z,30.00
2018-05-25T15:47:54.887Z,34.10
2018-05-25T15:52:56.187Z,35.20
2018-05-25T15:57:57.519Z,33.70
2018-05-25T16:02:58.823Z,35.50
2018-05-25T16:08:00.128Z,28.40
2018-05-25T16:13:01.401Z,25.80
2018-05-25T16:18:02.691Z,25.20
2018-05-25T16:23:04.719Z,25.10
2018-05-25T16:28:06.004Z,25.00
2018-05-25T16:33:07.269Z,27.00
2018-05-25T16:38:09.275Z,24.80
2018-05-25T16:43:11.273Z,25.10
2018-05-25T16:48:12.539Z,25.10
2018-05-25T16:53:13.788Z,26.50
2018-05-25T16:58:15.098Z,27.40
2018-05-25T17:03:16.347Z,27.80
2018-05-25T17:08:17.607Z,26.90
2018-05-25T17:13:18.857Z,25.80
2018-05-25T17:18:20.154Z,26.70
2018-05-25T17:23:21.411Z,27.40
2018-05-25T17:28:22.712Z,29.50
2018-05-25T17:33:23.967Z,30.80
2018-05-25T17:38:25.270Z,33.20
2018-05-25T17:43:28.067Z,40.80
2018-05-25T17:48:29.333Z,40.80
2018-05-25T17:53:30.647Z,43.50
2018-05-25T17:58:31.911Z,45.00
2018-05-25T18:03:33.168Z,45.20
2018-05-25T18:08:34.434Z,45.50
2018-05-25T18:13:35.699Z,46.30
2018-05-25T18:18:36.983Z,47.80
2018-05-25T18:23:38.261Z,49.70
2018-05-25T18:28:40.274Z,52.90
2018-05-25T18:33:41.544Z,52.90
2018-05-25T18:38:42.800Z,55.00
2018-05-25T18:43:44.085Z,57.10
2018-05-25T18:48:45.336Z,58.90
2018-05-25T18:53:58.927Z,60.50
2018-05-25T18:59:00.202Z,63.80
2018-05-25T19:04:01.483Z,66.40
2018-05-25T19:09:04.490Z,72.10
2018-05-25T19:14:05.759Z,72.00
2018-05-25T19:19:07.028Z,74.60
2018-05-25T19:24:08.303Z,76.60
2018-05-25T19:29:09.595Z,78.00
2018-05-25T19:34:10.843Z,78.40
2018-05-25T19:39:12.114Z,78.40
2018-05-25T19:44:13.383Z,79.10
2018-05-25T19:49:14.663Z,80.30
2018-05-25T19:54:15.936Z,81.10
2018-05-25T19:59:17.203Z,79.80
2018-05-25T20:04:18.503Z,78.60
2018-05-25T20:09:19.827Z,75.70
2018-05-25T20:14:21.115Z,74.60
2018-05-25T20:19:22.464Z,74.50
2018-05-25T20:24:24.483Z,74.10
2018-05-25T20:29:25.772Z,74.10
2018-05-25T20:34:27.028Z,74.00
2018-05-25T20:39:28.285Z,74.30
2018-05-25T20:44:29.607Z,74.50
2018-05-25T20:49:30.987Z,75.30
2018-05-25T20:54:32.255Z,76.50
2018-05-25T20:59:33.527Z,76.30
2018-05-25T21:04:34.795Z,76.50
2018-05-25T21:09:36.112Z,76.50
2018-05-25T21:14:37.379Z,76.60
2018-05-25T21:19:38.665Z,76.70
2018-05-25T21:24:39.986Z,76.40
2018-05-25T21:29:41.216Z,77.80
2018-05-25T21:34:42.484Z,77.10
2018-05-25T21:39:43.765Z,76.80
2018-05-25T21:44:45.045Z,77.20
2018-05-25T21:49:46.321Z,77.60
2018-05-25T21:54:47.576Z,78.20
2018-05-25T21:59:49.581Z,75.70
2018-05-25T22:04:51.577Z,76.00
2018-05-25T22:09:52.859Z,75.90
2018-05-25T22:14:54.133Z,76.10
2018-05-25T22:19:55.396Z,76.00
2018-05-25T22:24:56.659Z,76.60
2018-05-25T22:29:58.707Z,78.00
2018-05-25T22:34:59.963Z,78.00
2018-05-25T22:40:02.002Z,79.60
2018-05-25T22:45:15.688Z,79.50
2018-05-25T22:50:35.614Z,79.40
2018-05-25T22:55:43.144Z,79.60
2018-05-25T23:00:45.203Z,81.80
2018-05-25T23:05:46.530Z,81.80
2018-05-25T23:10:47.828Z,83.60
2018-05-25T23:15:49.200Z,84.70
2018-05-25T23:20:50.484Z,86.10
2018-05-25T23:25:51.797Z,86.40
2018-05-25T23:30:53.112Z,86.70
2018-05-25T23:35:54.413Z,86.60
2018-05-25T23:40:56.458Z,87.00
2018-05-25T23:45:57.762Z,87.00
2018-05-25T23:50:59.085Z,89.00
2018-05-25T23:56:00.380Z,89.50
